ウシュアイア の空港の天気 - METARとTAF

ウシュアイア空港 ( SAWH / USH ) - アルゼンチン ティエラ・デル・フエゴ州、ウシュアイア
飛行場実況気象(Metar)
観測時間08/04 19:00 ART (08/04 22:00 UTC)
風向・風速北西 2m/s
視程10km以上
天気現象
全天の4割程度の雲 雲底高度 1220m
気温10℃
湿度43%
気圧1000hPa
METARSAWH 042200Z 32004KT 9999 SCT040 10/M02 Q1000
過去の天気等 Google飛行場航空写真 Wunderground天気予報

過去48時間のMETAR

飛行場予報(TAF)
発表時間: 8/04 14:00 ART (8/04 17:00 UTC)
予報対象時間: 4日15時 ART ~ 5日15時 ART
風向・風速北西 5m/s
視程10km以上
全天の4割程度の雲 雲底高度 910m
全天の4割程度の雲 雲底高度 2740m
5日1時 ART ~ 5日3時 ART に徐々に
風向・風速北北西 8m/s 瞬間風速 13m/s
5日7時 ART ~ 5日9時 ART に徐々に
風向・風速不定 3m/s
TAF SAWH 041700Z 0418/0518 32010KT 9999 SCT030 SCT090 TX07/0506Z TN00/0512Z
BECMG 0504/0506 34015G25KT
BECMG 0510/0512 VRB05KT